Portada
METAR-TAF:

METAR-TAF

Aeroports :

Hiroshima, Japó

latitud: 34-26N, longitud: 132-55E, altitud: 331 m

Observació

L'informe es va fer fa 5 hores i 30 minuts, a les 13:00 UTC
Vent 10 kt del Oest/Nord-Oest
Temperatura 15°C
Humitat 59%
Pressió 1013 hPa
Visibilitat 10 km o més
sense núvols per sota de 1500 mi sense presència de cumulonimbus.

METAR: RJOA 181300Z 29010KT CAVOK 15/07 Q1013

Hora: 03:30 (18:30 UTC)

Pronòstic

L'informe es va fer fa 1 hora i 23 minuts, a les 17:07 UTC
Pronòstic vàlid del 18 a les 18 UTC al 20 a les 00 UTC
Vent 6 kt del Oest/Nord-Oest
Visibilitat 10 km o més
Escasses núvols a una alçada de 1500 ft
Evolucionant progressivament
l' 19 a les 09 UTC al 19 a les 12 UTC
Vent 6 kt del Nord/Nord-Est

TAF: RJOA 181707Z 1818/2000 30006KT 9999 FEW015 BECMG 1909/1912 03006KT

Observacions i pronòstics meteorològics de més de 4000 aeroports (METAR i TAF).

Les estacions disponibles són els punts grocs i vermells al mapa.

Posi el ratolí al punt desitjat per veure el nom de l'estació.

Feu clic per veure les observacions i els pronòstics meteorològics.

Per canviar el mapa: feu clic els botons verds amb una creu de color negre per apropar; al botó verd amb un guió per allunyar la imatge; o en les fletxes verdes per a mapes adjacents.


METAR-TAF: